Time,TemperatureF,DewpointF,PressureIn,WindDirection,WindDirectionDegrees,WindSpeedMPH,WindSpeedGustMPH,Humidity,HourlyPrecipIn,Conditions,Clouds,dailyrainin,SolarRadiationWatts/m^2,SoftwareType,DateUTC
2013-10-09 00:01:00,46.4,41.2,30.31,North,9,0.0,0.0,82,0.00,FEW,,0.00,0.0,WeatherDisplay:10.37,2013-10-09 04:01:00,
2013-10-09 00:02:00,46.4,41.2,30.31,North,9,0.0,0.0,82,0.00,SCT,,0.00,0.0,WeatherDisplay:10.37,2013-10-09 04:02:00,
2013-10-09 00:04:00,46.2,41.0,30.31,North,9,0.0,0.0,82,0.00,SCT,,0.00,0.0,WeatherDisplay:10.37,2013-10-09 04:04:00,
2013-10-09 00:09:00,46.2,41.0,30.31,North,9,0.0,0.0,82,0.00,SCT,,0.00,0.0,WeatherDisplay:10.37,2013-10-09 04:09:00,
2013-10-09 00:14:00,46.0,40.8,30.31,North,9,0.0,0.0,82,0.00,SCT,,0.00,0.0,WeatherDisplay:10.37,2013-10-09 04:14:00,
2013-10-09 00:19:00,45.8,40.9,30.31,North,9,0.0,0.0,83,0.00,SCT,,0.00,0.0,WeatherDisplay:10.37,2013-10-09 04:19:00,
2013-10-09 00:24:00,45.8,40.9,30.31,North,9,0.0,0.0,83,0.00,SCT,,0.00,0.0,WeatherDisplay:10.37,2013-10-09 04:24:00,
2013-10-09 00:29:00,45.7,40.8,30.31,North,9,0.0,0.0,83,0.00,SCT,,0.00,0.0,WeatherDisplay:10.37,2013-10-09 04:29:00,
2013-10-09 00:34:00,45.7,40.8,30.31,North,9,0.0,0.0,83,0.00,SCT,,0.00,0.0,WeatherDisplay:10.37,2013-10-09 04:34:00,
2013-10-09 00:39:00,45.7,41.1,30.31,North,9,0.0,0.0,84,0.00,SCT,,0.00,0.0,WeatherDisplay:10.37,2013-10-09 04:39:00,
2013-10-09 00:44:00,45.5,40.9,30.31,North,9,0.0,0.0,84,0.00,SCT,,0.00,0.0,WeatherDisplay:10.37,2013-10-09 04:44:00,
2013-10-09 00:49:00,45.5,40.9,30.31,North,9,0.0,0.0,84,0.00,SCT,,0.00,0.0,WeatherDisplay:10.37,2013-10-09 04:49:00,
2013-10-09 00:54:00,45.5,40.9,30.31,North,9,0.0,0.0,84,0.00,SCT,,0.00,0.0,WeatherDisplay:10.37,2013-10-09 04:54:00,
2013-10-09 00:59:00,45.4,40.8,30.31,North,9,0.0,0.0,84,0.00,SCT,,0.00,0.0,WeatherDisplay:10.37,2013-10-09 04:59:00,
2013-10-09 01:04:00,45.2,40.7,30.31,North,9,0.0,0.0,84,0.00,SCT,,0.00,0.0,WeatherDisplay:10.37,2013-10-09 05:04:00,
2013-10-09 01:09:00,45.1,40.6,30.31,North,9,0.0,0.0,84,0.00,SCT,,0.00,0.0,WeatherDisplay:10.37,2013-10-09 05:09:00,
2013-10-09 01:14:00,45.1,40.9,30.31,North,9,0.0,0.0,85,0.00,SCT,,0.00,0.0,WeatherDisplay:10.37,2013-10-09 05:14:00,
2013-10-09 01:19:00,44.9,40.7,30.31,North,9,0.0,0.0,85,0.00,SCT,,0.00,0.0,WeatherDisplay:10.37,2013-10-09 05:19:00,
2013-10-09 01:24:00,44.9,40.7,30.31,North,9,0.0,0.0,85,0.00,SCT,,0.00,0.0,WeatherDisplay:10.37,2013-10-09 05:24:00,
2013-10-09 01:29:00,44.8,40.6,30.31,North,9,0.0,0.0,85,0.00,SCT,,0.00,0.0,WeatherDisplay:10.37,2013-10-09 05:29:00,
2013-10-09 01:34:00,44.6,40.4,30.31,North,9,0.0,0.0,85,0.00,SCT,,0.00,0.0,WeatherDisplay:10.37,2013-10-09 05:34:00,
2013-10-09 01:39:00,44.5,40.3,30.31,North,9,0.0,0.0,85,0.00,SCT,,0.00,0.0,WeatherDisplay:10.37,2013-10-09 05:39:00,
2013-10-09 01:44:00,44.5,40.3,30.31,North,9,0.0,0.0,85,0.00,SCT,,0.00,0.0,WeatherDisplay:10.37,2013-10-09 05:44:00,
2013-10-09 01:49:00,44.3,40.1,30.31,North,9,0.0,0.0,85,0.00,SCT,,0.00,0.0,WeatherDisplay:10.37,2013-10-09 05:49:00,
2013-10-09 01:54:00,44.3,40.4,30.31,North,9,0.0,0.0,86,0.00,SCT,,0.00,0.0,WeatherDisplay:10.37,2013-10-09 05:54:00,
2013-10-09 01:59:00,44.2,40.3,30.31,North,9,0.0,0.0,86,0.00,SCT,,0.00,0.0,WeatherDisplay:10.37,2013-10-09 05:59:00,
2013-10-09 02:04:00,44.2,40.3,30.31,North,9,0.0,0.0,86,0.00,BKN,,0.00,0.0,WeatherDisplay:10.37,2013-10-09 06:04:00,
2013-10-09 02:09:00,44.3,40.4,30.31,North,9,0.0,0.0,86,0.00,BKN,,0.00,0.0,WeatherDisplay:10.37,2013-10-09 06:09:00,
2013-10-09 02:14:00,44.6,41.0,30.31,North,9,0.0,0.0,87,0.00,BKN,,0.00,0.0,WeatherDisplay:10.37,2013-10-09 06:14:00,
2013-10-09 02:19:00,44.6,41.0,30.31,North,9,0.0,0.0,87,0.00,BKN,,0.00,0.0,WeatherDisplay:10.37,2013-10-09 06:19:00,
2013-10-09 02:24:00,44.5,40.9,30.31,North,9,0.0,0.0,87,0.00,BKN,,0.00,0.0,WeatherDisplay:10.37,2013-10-09 06:24:00,
2013-10-09 02:29:00,44.5,40.9,30.31,North,9,0.0,0.0,87,0.00,BKN,,0.00,0.0,WeatherDisplay:10.37,2013-10-09 06:29:00,
2013-10-09 02:34:00,44.5,40.9,30.31,North,9,0.0,0.0,87,0.00,BKN,,0.00,0.0,WeatherDisplay:10.37,2013-10-09 06:34:00,
2013-10-09 02:39:00,44.3,40.7,30.31,North,9,0.0,0.0,87,0.00,BKN,,0.00,0.0,WeatherDisplay:10.37,2013-10-09 06:39:00,
2013-10-09 02:44:00,44.2,40.6,30.31,North,9,0.0,0.0,87,0.00,BKN,,0.00,0.0,WeatherDisplay:10.37,2013-10-09 06:44:00,
2013-10-09 02:49:00,44.2,40.6,30.31,North,9,0.0,0.0,87,0.00,BKN,,0.00,0.0,WeatherDisplay:10.37,2013-10-09 06:49:00,
2013-10-09 02:54:00,44.2,40.6,30.31,North,9,0.0,0.0,87,0.00,BKN,,0.00,0.0,WeatherDisplay:10.37,2013-10-09 06:54:00,
2013-10-09 02:59:00,44.2,40.6,30.30,North,9,0.0,0.0,87,0.00,BKN,,0.00,0.0,WeatherDisplay:10.37,2013-10-09 06:59:00,
2013-10-09 03:04:00,44.1,40.5,30.30,North,9,0.0,0.0,87,0.00,OVC,,0.00,0.0,WeatherDisplay:10.37,2013-10-09 07:04:00,
2013-10-09 03:09:00,43.9,40.3,30.29,North,9,0.0,0.0,87,0.00,OVC,,0.00,0.0,WeatherDisplay:10.37,2013-10-09 07:09:00,
2013-10-09 03:14:00,43.9,40.6,30.29,North,9,0.0,0.0,88,0.00,OVC,,0.00,0.0,WeatherDisplay:10.37,2013-10-09 07:14:00,
2013-10-09 03:19:00,43.9,40.6,30.29,North,9,0.0,0.0,88,0.00,OVC,,0.00,0.0,WeatherDisplay:10.37,2013-10-09 07:19:00,
2013-10-09 03:24:00,43.8,40.5,30.29,North,9,0.0,0.0,88,0.00,OVC,,0.00,0.0,WeatherDisplay:10.37,2013-10-09 07:24:00,
2013-10-09 03:29:00,43.8,40.5,30.29,North,9,0.0,0.0,88,0.00,OVC,,0.00,0.0,WeatherDisplay:10.37,2013-10-09 07:29:00,
2013-10-09 03:34:00,43.6,40.3,30.29,North,9,0.0,0.0,88,0.00,OVC,,0.00,0.0,WeatherDisplay:10.37,2013-10-09 07:34:00,
2013-10-09 03:39:00,43.5,40.2,30.29,North,9,0.0,0.0,88,0.00,OVC,,0.00,0.0,WeatherDisplay:10.37,2013-10-09 07:39:00,
2013-10-09 03:44:00,43.5,40.2,30.29,North,9,0.0,0.0,88,0.00,OVC,,0.00,0.0,WeatherDisplay:10.37,2013-10-09 07:44:00,
2013-10-09 03:49:00,43.6,40.3,30.29,North,9,0.0,0.0,88,0.00,OVC,,0.00,0.0,WeatherDisplay:10.37,2013-10-09 07:49:00,
2013-10-09 03:54:00,43.6,40.3,30.30,North,9,0.0,0.0,88,0.00,OVC,,0.00,0.0,WeatherDisplay:10.37,2013-10-09 07:54:00,
2013-10-09 03:59:00,43.5,40.2,30.30,North,9,0.0,0.0,88,0.00,OVC,,0.00,0.0,WeatherDisplay:10.37,2013-10-09 07:59:00,
2013-10-09 04:04:00,43.5,40.2,30.30,North,9,0.0,0.0,88,0.00,OVC,,0.00,0.0,WeatherDisplay:10.37,2013-10-09 08:04:00,
2013-10-09 04:09:00,43.6,40.3,30.30,North,9,0.0,0.0,88,0.00,OVC,,0.00,0.0,WeatherDisplay:10.37,2013-10-09 08:09:00,
2013-10-09 04:14:00,43.8,40.5,30.30,North,9,0.0,0.0,88,0.00,OVC,,0.00,0.0,WeatherDisplay:10.37,2013-10-09 08:14:00,
2013-10-09 04:19:00,43.9,40.6,30.31,North,9,0.0,0.0,88,0.00,OVC,,0.00,0.0,WeatherDisplay:10.37,2013-10-09 08:19:00,
2013-10-09 04:24:00,43.9,40.6,30.31,North,9,0.0,0.0,88,0.00,OVC,,0.00,0.0,WeatherDisplay:10.37,2013-10-09 08:24:00,
2013-10-09 04:29:00,43.9,40.6,30.31,North,9,0.0,0.0,88,0.00,OVC,,0.00,0.0,WeatherDisplay:10.37,2013-10-09 08:29:00,
2013-10-09 04:34:00,43.9,40.6,30.30,North,9,0.0,0.0,88,0.00,OVC,,0.00,0.0,WeatherDisplay:10.37,2013-10-09 08:34:00,
2013-10-09 04:39:00,44.1,41.1,30.29,North,9,0.0,0.0,89,0.00,OVC,,0.00,0.0,WeatherDisplay:10.37,2013-10-09 08:39:00,
2013-10-09 04:44:00,44.2,41.2,30.29,North,9,0.0,0.0,89,0.00,OVC,,0.00,0.0,WeatherDisplay:10.37,2013-10-09 08:44:00,
2013-10-09 04:49:00,44.3,41.3,30.30,North,9,0.0,0.0,89,0.00,OVC,,0.00,0.0,WeatherDisplay:10.37,2013-10-09 08:49:00,
2013-10-09 04:54:00,44.2,41.2,30.30,North,9,0.0,0.0,89,0.00,OVC,,0.00,0.0,WeatherDisplay:10.37,2013-10-09 08:54:00,
2013-10-09 04:59:00,44.1,41.1,30.31,North,9,0.0,0.0,89,0.00,OVC,,0.00,0.0,WeatherDisplay:10.37,2013-10-09 08:59:00,
2013-10-09 05:04:00,43.9,40.9,30.31,North,9,0.0,0.0,89,0.00,OVC,,0.00,0.0,WeatherDisplay:10.37,2013-10-09 09:04:00,
2013-10-09 05:09:00,43.9,40.9,30.32,North,9,0.0,0.0,89,0.00,OVC,,0.00,0.0,WeatherDisplay:10.37,2013-10-09 09:09:00,
2013-10-09 05:14:00,44.1,41.1,30.32,North,9,0.0,0.0,89,0.00,OVC,,0.00,0.0,WeatherDisplay:10.37,2013-10-09 09:14:00,
2013-10-09 05:19:00,43.8,40.8,30.32,North,9,0.0,0.0,89,0.00,OVC,,0.00,0.0,WeatherDisplay:10.37,2013-10-09 09:19:00,
2013-10-09 05:24:00,43.6,40.6,30.33,North,9,0.0,0.0,89,0.00,OVC,,0.00,0.0,WeatherDisplay:10.37,2013-10-09 09:24:00,
2013-10-09 05:29:00,43.5,40.5,30.33,North,9,0.0,0.0,89,0.00,OVC,,0.00,0.0,WeatherDisplay:10.37,2013-10-09 09:29:00,
2013-10-09 05:34:00,43.5,40.5,30.33,North,9,0.0,0.0,89,0.00,OVC,,0.00,0.0,WeatherDisplay:10.37,2013-10-09 09:34:00,
2013-10-09 05:39:00,43.3,40.3,30.32,North,9,0.0,0.0,89,0.00,OVC,,0.00,0.0,WeatherDisplay:10.37,2013-10-09 09:39:00,
2013-10-09 05:44:00,43.2,40.2,30.32,North,9,0.0,0.0,89,0.00,OVC,,0.00,0.0,WeatherDisplay:10.37,2013-10-09 09:44:00,
2013-10-09 05:49:00,43.3,40.3,30.32,North,9,0.0,0.0,89,0.00,OVC,,0.00,0.0,WeatherDisplay:10.37,2013-10-09 09:49:00,
2013-10-09 05:54:00,43.3,40.3,30.32,North,9,0.0,0.0,89,0.00,OVC,,0.00,0.0,WeatherDisplay:10.37,2013-10-09 09:54:00,
2013-10-09 05:59:00,43.3,40.3,30.32,North,9,0.0,0.0,89,0.00,OVC,,0.00,0.0,WeatherDisplay:10.37,2013-10-09 09:59:00,
2013-10-09 06:04:00,43.5,40.8,30.32,North,9,0.0,0.0,90,0.00,OVC,,0.00,0.0,WeatherDisplay:10.37,2013-10-09 10:04:00,
2013-10-09 06:09:00,43.3,40.3,30.31,North,9,0.0,0.0,89,0.00,OVC,,0.00,0.0,WeatherDisplay:10.37,2013-10-09 10:09:00,
2013-10-09 06:14:00,43.6,40.9,30.31,North,9,0.0,0.0,90,0.00,BKN,,0.00,0.0,WeatherDisplay:10.37,2013-10-09 10:14:00,
2013-10-09 06:19:00,43.8,41.1,30.31,North,9,0.0,0.0,90,0.00,BKN,,0.00,0.0,WeatherDisplay:10.37,2013-10-09 10:19:00,
2013-10-09 06:24:00,43.8,41.1,30.31,North,9,0.0,0.0,90,0.00,BKN,,0.00,0.0,WeatherDisplay:10.37,2013-10-09 10:24:00,
2013-10-09 06:29:00,43.6,40.9,30.32,North,9,0.0,0.0,90,0.00,BKN,,0.00,0.0,WeatherDisplay:10.37,2013-10-09 10:29:00,
2013-10-09 06:34:00,43.6,40.9,30.33,North,9,0.0,0.0,90,0.00,BKN,,0.00,0.0,WeatherDisplay:10.37,2013-10-09 10:34:00,
2013-10-09 06:39:00,43.5,40.8,30.33,North,9,0.0,0.0,90,0.00,BKN,,0.00,0.0,WeatherDisplay:10.37,2013-10-09 10:39:00,
2013-10-09 06:44:00,43.3,40.6,30.32,North,9,0.0,0.0,90,0.00,BKN,,0.00,0.0,WeatherDisplay:10.37,2013-10-09 10:44:00,
2013-10-09 06:49:00,43.2,40.5,30.33,North,9,0.0,0.0,90,0.00,BKN,,0.00,0.0,WeatherDisplay:10.37,2013-10-09 10:49:00,
2013-10-09 06:54:00,43.2,40.5,30.33,North,9,0.0,0.0,90,0.00,BKN,,0.00,0.0,WeatherDisplay:10.37,2013-10-09 10:54:00,
2013-10-09 06:59:00,42.9,40.2,30.33,North,9,0.0,0.0,90,0.00,BKN,,0.00,0.0,WeatherDisplay:10.37,2013-10-09 10:59:00,
2013-10-09 07:04:00,42.8,40.1,30.33,North,9,0.0,0.0,90,0.00,BKN,,0.00,0.0,WeatherDisplay:10.37,2013-10-09 11:04:00,
2013-10-09 07:09:00,42.8,40.1,30.33,North,9,0.0,0.0,90,0.00,BKN,,0.00,0.0,WeatherDisplay:10.37,2013-10-09 11:09:00,
2013-10-09 07:14:00,42.8,40.1,30.34,North,9,0.0,0.0,90,0.00,BKN,,0.00,0.0,WeatherDisplay:10.37,2013-10-09 11:14:00,
2013-10-09 07:19:00,42.8,40.1,30.33,North,9,0.1,1.2,90,0.00,BKN,,0.00,0.0,WeatherDisplay:10.37,2013-10-09 11:19:00,
2013-10-09 07:24:00,43.2,40.5,30.33,North,9,0.0,0.0,90,0.00,BKN,,0.00,0.0,WeatherDisplay:10.37,2013-10-09 11:24:00,
2013-10-09 07:29:00,42.9,40.2,30.34,North,9,0.0,0.0,90,0.00,BKN,,0.00,5.0,WeatherDisplay:10.37,2013-10-09 11:29:00,
2013-10-09 07:34:00,42.6,39.9,30.34,North,9,0.0,0.0,90,0.00,BKN,,0.00,9.0,WeatherDisplay:10.37,2013-10-09 11:34:00,
2013-10-09 07:39:00,42.5,39.8,30.34,North,9,0.0,0.0,90,0.00,BKN,,0.00,14.0,WeatherDisplay:10.37,2013-10-09 11:39:00,
2013-10-09 07:44:00,42.3,39.6,30.34,North,9,0.0,0.0,90,0.00,BKN,,0.00,16.0,WeatherDisplay:10.37,2013-10-09 11:44:00,
2013-10-09 07:49:00,42.3,39.6,30.34,North,9,0.0,0.0,90,0.00,BKN,,0.00,18.0,WeatherDisplay:10.37,2013-10-09 11:49:00,
2013-10-09 07:54:00,42.3,39.6,30.35,North,9,0.0,0.0,90,0.00,BKN,,0.00,18.0,WeatherDisplay:10.37,2013-10-09 11:54:00,
2013-10-09 07:59:00,42.3,39.6,30.35,North,9,0.0,0.0,90,0.00,BKN,,0.00,19.0,WeatherDisplay:10.37,2013-10-09 11:59:00,
2013-10-09 08:04:00,42.2,39.5,30.35,North,9,0.0,0.0,90,0.00,BKN,,0.00,21.0,WeatherDisplay:10.37,2013-10-09 12:04:00,
2013-10-09 08:08:00,42.2,39.5,30.35,North,9,0.0,0.0,90,0.00,BKN,,0.00,26.0,WeatherDisplay:10.37,2013-10-09 12:08:00,
2013-10-09 08:13:00,42.2,39.5,30.35,North,9,0.0,0.0,90,0.00,BKN,,0.00,33.0,WeatherDisplay:10.37,2013-10-09 12:13:00,
2013-10-09 08:18:00,42.2,39.5,30.35,North,9,0.0,0.0,90,0.00,BKN,,0.00,42.0,WeatherDisplay:10.37,2013-10-09 12:18:00,
2013-10-09 08:23:00,42.2,39.5,30.36,North,9,0.0,0.0,90,0.00,BKN,,0.00,53.0,WeatherDisplay:10.37,2013-10-09 12:23:00,
2013-10-09 08:28:00,42.3,39.9,30.36,North,9,0.0,0.0,91,0.00,BKN,,0.00,58.0,WeatherDisplay:10.37,2013-10-09 12:28:00,
2013-10-09 08:33:00,42.5,40.1,30.36,North,9,0.0,0.0,91,0.00,BKN,,0.00,62.0,WeatherDisplay:10.37,2013-10-09 12:33:00,
2013-10-09 08:38:00,42.6,40.2,30.36,North,9,0.0,0.0,91,0.00,BKN,,0.00,70.0,WeatherDisplay:10.37,2013-10-09 12:38:00,
2013-10-09 08:43:00,43.1,40.7,30.36,North,9,0.0,0.0,91,0.00,BKN,,0.00,74.0,WeatherDisplay:10.37,2013-10-09 12:43:00,
2013-10-09 08:48:00,43.5,41.0,30.36,North,9,0.0,0.0,91,0.00,BKN,,0.00,79.0,WeatherDisplay:10.37,2013-10-09 12:48:00,
2013-10-09 08:53:00,43.8,41.3,30.36,North,9,0.0,0.0,91,0.00,BKN,,0.00,90.0,WeatherDisplay:10.37,2013-10-09 12:53:00,
2013-10-09 08:58:00,44.5,42.0,30.36,North,9,0.0,0.0,91,0.00,BKN,,0.00,105.0,WeatherDisplay:10.37,2013-10-09 12:58:00,
2013-10-09 09:03:00,45.1,42.6,30.36,North,9,0.0,0.0,91,0.00,BKN,,0.00,118.0,WeatherDisplay:10.37,2013-10-09 13:03:00,
2013-10-09 09:08:00,45.7,43.2,30.36,North,9,0.0,0.0,91,0.00,BKN,,0.00,130.0,WeatherDisplay:10.37,2013-10-09 13:08:00,
2013-10-09 09:13:00,46.5,44.0,30.36,North,9,0.0,0.0,91,0.00,BKN,,0.00,139.0,WeatherDisplay:10.37,2013-10-09 13:13:00,
2013-10-09 09:18:00,47.4,45.2,30.35,North,9,0.1,1.2,92,0.00,BKN,,0.00,149.0,WeatherDisplay:10.37,2013-10-09 13:18:00,
2013-10-09 09:23:00,48.0,45.8,30.35,North,9,0.9,3.0,92,0.00,BKN,,0.00,162.0,WeatherDisplay:10.37,2013-10-09 13:23:00,
2013-10-09 09:28:00,48.3,45.8,30.35,North,9,0.1,1.5,91,0.00,BKN,,0.00,165.0,WeatherDisplay:10.37,2013-10-09 13:28:00,
2013-10-09 09:33:00,48.6,46.1,30.35,North,5,0.0,0.0,91,0.00,BKN,,0.00,183.0,WeatherDisplay:10.37,2013-10-09 13:33:00,
2013-10-09 09:38:00,49.1,46.6,30.35,North,5,0.0,0.0,91,0.00,BKN,,0.00,176.0,WeatherDisplay:10.37,2013-10-09 13:38:00,
2013-10-09 09:43:00,49.5,47.0,30.36,North,5,0.0,1.2,91,0.00,BKN,,0.00,179.0,WeatherDisplay:10.37,2013-10-09 13:43:00,
2013-10-09 09:48:00,49.8,47.3,30.35,NNE,12,1.4,3.0,91,0.00,BKN,,0.00,188.0,WeatherDisplay:10.37,2013-10-09 13:48:00,
2013-10-09 09:53:00,50.1,47.6,30.35,NNE,12,0.2,1.2,91,0.00,BKN,,0.00,209.0,WeatherDisplay:10.37,2013-10-09 13:53:00,
2013-10-09 09:58:00,50.4,47.9,30.35,NNE,13,2.4,4.5,91,0.00,BKN,,0.00,223.0,WeatherDisplay:10.37,2013-10-09 13:58:00,
2013-10-09 10:03:00,51.0,48.5,30.36,NNE,13,0.1,1.5,91,0.00,CLR,,0.00,234.0,WeatherDisplay:10.37,2013-10-09 14:03:00,
2013-10-09 10:08:00,51.6,49.1,30.36,NNE,13,0.8,1.5,91,0.00,CLR,,0.00,223.0,WeatherDisplay:10.37,2013-10-09 14:08:00,
2013-10-09 10:13:00,52.0,49.2,30.36,NNE,12,1.1,4.5,90,0.00,CLR,,0.00,239.0,WeatherDisplay:10.37,2013-10-09 14:13:00,
2013-10-09 10:18:00,52.5,49.4,30.36,North,11,0.0,1.2,89,0.00,CLR,,0.00,239.0,WeatherDisplay:10.37,2013-10-09 14:18:00,
2013-10-09 10:23:00,52.9,49.4,30.36,North,10,1.1,3.5,88,0.00,CLR,,0.00,230.0,WeatherDisplay:10.37,2013-10-09 14:23:00,
2013-10-09 10:28:00,53.2,49.7,30.36,North,9,0.3,1.2,88,0.00,CLR,,0.00,236.0,WeatherDisplay:10.37,2013-10-09 14:28:00,
2013-10-09 10:33:00,53.8,49.7,30.36,North,5,1.8,3.0,86,0.00,CLR,,0.00,241.0,WeatherDisplay:10.37,2013-10-09 14:33:00,
2013-10-09 10:38:00,54.2,49.1,30.36,North,5,3.0,6.0,83,0.00,CLR,,0.00,236.0,WeatherDisplay:10.37,2013-10-09 14:38:00,
2013-10-09 10:43:00,54.4,48.7,30.36,North,5,3.5,4.6,81,0.00,CLR,,0.00,234.0,WeatherDisplay:10.37,2013-10-09 14:43:00,
2013-10-09 10:48:00,54.7,48.0,30.36,North,5,0.7,4.6,78,0.00,CLR,,0.00,234.0,WeatherDisplay:10.37,2013-10-09 14:48:00,
2013-10-09 10:53:00,55.1,47.7,30.36,North,9,0.6,1.5,76,0.00,CLR,,0.00,225.0,WeatherDisplay:10.37,2013-10-09 14:53:00,
2013-10-09 10:58:00,55.3,47.5,30.36,North,360,0.0,1.2,75,0.00,CLR,,0.00,221.0,WeatherDisplay:10.37,2013-10-09 14:58:00,
2013-10-09 11:03:00,55.7,47.2,30.36,North,360,0.1,1.2,73,0.00,CLR,,0.00,223.0,WeatherDisplay:10.37,2013-10-09 15:03:00,
2013-10-09 11:08:00,55.9,47.0,30.36,North,360,0.0,3.5,72,0.00,CLR,,0.00,209.0,WeatherDisplay:10.37,2013-10-09 15:08:00,
2013-10-09 11:13:00,56.2,46.9,30.36,North,360,0.4,1.5,71,0.00,CLR,,0.00,211.0,WeatherDisplay:10.37,2013-10-09 15:13:00,
2013-10-09 11:18:00,56.2,46.5,30.36,North,360,1.3,3.0,70,0.00,CLR,,0.00,216.0,WeatherDisplay:10.37,2013-10-09 15:18:00,
2013-10-09 11:23:00,56.3,46.3,30.36,North,360,0.0,0.0,69,0.00,CLR,,0.00,216.0,WeatherDisplay:10.37,2013-10-09 15:23:00,
2013-10-09 11:28:00,56.5,46.1,30.36,NNW,347,1.6,3.5,68,0.00,CLR,,0.00,223.0,WeatherDisplay:10.37,2013-10-09 15:28:00,
2013-10-09 11:33:00,56.6,46.2,30.36,NNW,344,0.3,1.2,68,0.00,CLR,,0.00,236.0,WeatherDisplay:10.37,2013-10-09 15:33:00,
2013-10-09 11:38:00,56.9,46.1,30.36,NNW,344,0.0,1.2,67,0.00,CLR,,0.00,250.0,WeatherDisplay:10.37,2013-10-09 15:38:00,
2013-10-09 11:43:00,57.0,46.1,30.36,NNW,344,0.0,0.0,67,0.00,CLR,,0.00,260.0,WeatherDisplay:10.37,2013-10-09 15:43:00,
2013-10-09 11:48:00,57.3,46.0,30.36,NNW,343,1.3,4.5,66,0.00,CLR,,0.00,271.0,WeatherDisplay:10.37,2013-10-09 15:48:00,
2013-10-09 11:53:00,57.6,45.5,30.36,NNW,343,0.2,1.5,64,0.00,CLR,,0.00,272.0,WeatherDisplay:10.37,2013-10-09 15:53:00,
2013-10-09 11:58:00,58.0,45.5,30.36,NNW,342,0.3,1.5,63,0.00,CLR,,0.00,279.0,WeatherDisplay:10.37,2013-10-09 15:58:00,
2013-10-09 12:03:00,58.1,44.3,30.36,NE,46,9.1,13.5,60,0.00,CLR,,0.00,265.0,WeatherDisplay:10.37,2013-10-09 16:03:00,
2013-10-09 12:08:00,58.6,44.3,30.35,NNE,30,0.0,1.2,59,0.00,CLR,,0.00,264.0,WeatherDisplay:10.37,2013-10-09 16:08:00,
2013-10-09 12:13:00,59.0,45.6,30.35,NNE,30,0.2,1.5,61,0.00,BKN,,0.00,272.0,WeatherDisplay:10.37,2013-10-09 16:13:00,
2013-10-09 12:18:00,59.0,45.1,30.35,NNW,336,2.3,4.5,60,0.00,BKN,,0.00,283.0,WeatherDisplay:10.37,2013-10-09 16:18:00,
2013-10-09 12:23:00,59.0,43.8,30.35,NNW,336,1.0,3.5,57,0.00,BKN,,0.00,309.0,WeatherDisplay:10.37,2013-10-09 16:23:00,
2013-10-09 12:28:00,59.2,41.1,30.34,North,5,3.9,9.0,51,0.00,BKN,,0.00,332.0,WeatherDisplay:10.37,2013-10-09 16:28:00,
2013-10-09 12:33:00,59.6,39.9,30.34,ESE,109,5.2,5.8,48,0.00,BKN,,0.00,350.0,WeatherDisplay:10.37,2013-10-09 16:33:00,
2013-10-09 12:38:00,59.9,39.1,30.34,ENE,59,5.2,7.5,46,0.00,BKN,,0.00,364.0,WeatherDisplay:10.37,2013-10-09 16:38:00,
2013-10-09 12:43:00,60.1,39.8,30.34,NE,43,2.6,9.0,47,0.00,BKN,,0.00,364.0,WeatherDisplay:10.37,2013-10-09 16:43:00,
2013-10-09 12:48:00,60.1,38.7,30.34,NE,36,1.2,5.8,45,0.00,BKN,,0.00,346.0,WeatherDisplay:10.37,2013-10-09 16:48:00,
2013-10-09 12:53:00,60.2,39.9,30.34,NNE,16,1.8,3.5,47,0.00,BKN,,0.00,336.0,WeatherDisplay:10.37,2013-10-09 16:53:00,
2013-10-09 12:58:00,60.2,38.8,30.34,NNE,17,2.2,11.5,45,0.00,BKN,,0.00,339.0,WeatherDisplay:10.37,2013-10-09 16:58:00,
2013-10-09 13:03:00,60.1,38.1,30.34,North,355,5.1,8.1,44,0.00,BKN,,0.00,350.0,WeatherDisplay:10.37,2013-10-09 17:03:00,
2013-10-09 13:08:00,60.4,39.5,30.34,NNE,15,4.7,6.0,46,0.00,BKN,,0.00,350.0,WeatherDisplay:10.37,2013-10-09 17:08:00,
2013-10-09 13:13:00,60.4,38.9,30.34,NNW,342,1.2,3.5,45,0.00,OVC,,0.00,352.0,WeatherDisplay:10.37,2013-10-09 17:13:00,
2013-10-09 13:18:00,60.5,37.3,30.34,NNE,26,5.8,9.2,42,0.00,OVC,,0.00,345.0,WeatherDisplay:10.37,2013-10-09 17:18:00,
2013-10-09 13:23:00,60.5,37.9,30.33,NNE,28,0.4,4.6,43,0.00,OVC,,0.00,325.0,WeatherDisplay:10.37,2013-10-09 17:23:00,
2013-10-09 13:28:00,60.9,37.6,30.33,NNE,33,4.0,6.0,42,0.00,OVC,,0.00,323.0,WeatherDisplay:10.37,2013-10-09 17:28:00,
2013-10-09 13:33:00,60.9,36.4,30.33,NNE,32,1.4,4.6,40,0.00,OVC,,0.00,327.0,WeatherDisplay:10.37,2013-10-09 17:33:00,
2013-10-09 13:38:00,60.7,36.8,30.33,NE,55,2.4,6.0,41,0.00,OVC,,0.00,323.0,WeatherDisplay:10.37,2013-10-09 17:38:00,
2013-10-09 13:43:00,60.9,37.6,30.33,NNE,16,6.2,10.5,42,0.00,OVC,,0.00,315.0,WeatherDisplay:10.37,2013-10-09 17:43:00,
2013-10-09 13:48:00,60.9,37.6,30.33,NNE,22,0.3,4.6,42,0.00,OVC,,0.00,318.0,WeatherDisplay:10.37,2013-10-09 17:48:00,
2013-10-09 13:53:00,60.9,37.6,30.32,East,86,1.8,7.5,42,0.00,OVC,,0.00,322.0,WeatherDisplay:10.37,2013-10-09 17:53:00,
2013-10-09 13:58:00,61.0,36.5,30.32,NE,40,2.7,4.6,40,0.00,OVC,,0.00,309.0,WeatherDisplay:10.37,2013-10-09 17:58:00,
2013-10-09 14:03:00,61.0,36.5,30.32,NNE,22,1.9,3.5,40,0.00,OVC,,0.00,308.0,WeatherDisplay:10.37,2013-10-09 18:03:00,
2013-10-09 14:08:00,61.0,37.7,30.31,NNE,19,3.2,5.8,42,0.00,OVC,,0.00,309.0,WeatherDisplay:10.37,2013-10-09 18:08:00,
2013-10-09 14:13:00,61.0,37.7,30.31,NNE,20,4.9,10.4,42,0.00,OVC,,0.00,304.0,WeatherDisplay:10.37,2013-10-09 18:13:00,
2013-10-09 14:18:00,61.0,39.5,30.31,NNE,21,0.2,5.8,45,0.00,OVC,,0.00,295.0,WeatherDisplay:10.37,2013-10-09 18:18:00,
2013-10-09 14:23:00,61.0,38.9,30.31,North,9,5.5,8.1,44,0.00,OVC,,0.00,288.0,WeatherDisplay:10.37,2013-10-09 18:23:00,
2013-10-09 14:28:00,61.0,38.9,30.31,North,5,0.1,1.2,44,0.00,OVC,,0.00,274.0,WeatherDisplay:10.37,2013-10-09 18:28:00,
2013-10-09 14:33:00,61.0,38.9,30.31,ENE,78,5.7,9.2,44,0.00,OVC,,0.00,257.0,WeatherDisplay:10.37,2013-10-09 18:33:00,
2013-10-09 14:38:00,60.9,39.4,30.31,NNE,32,4.6,8.1,45,0.00,OVC,,0.00,244.0,WeatherDisplay:10.37,2013-10-09 18:38:00,
2013-10-09 14:43:00,60.5,39.6,30.31,ENE,77,1.5,3.5,46,0.00,OVC,,0.00,237.0,WeatherDisplay:10.37,2013-10-09 18:43:00,
2013-10-09 14:48:00,60.5,40.2,30.31,NE,55,2.6,5.8,47,0.00,OVC,,0.00,232.0,WeatherDisplay:10.37,2013-10-09 18:48:00,
2013-10-09 14:53:00,60.5,40.2,30.31,ENE,57,1.6,3.5,47,0.00,OVC,,0.00,227.0,WeatherDisplay:10.37,2013-10-09 18:53:00,
2013-10-09 14:58:00,60.7,41.4,30.31,North,5,3.4,5.8,49,0.00,OVC,,0.00,220.0,WeatherDisplay:10.37,2013-10-09 18:58:00,
2013-10-09 15:03:00,60.7,40.3,30.31,NNE,32,0.9,8.1,47,0.00,OVC,,0.00,214.0,WeatherDisplay:10.37,2013-10-09 19:03:00,
2013-10-09 15:08:00,60.7,40.3,30.31,NE,47,4.4,4.6,47,0.00,OVC,,0.00,209.0,WeatherDisplay:10.37,2013-10-09 19:08:00,
2013-10-09 15:13:00,60.5,40.2,30.31,ENE,68,0.5,4.6,47,0.00,OVC,,0.00,202.0,WeatherDisplay:10.37,2013-10-09 19:13:00,
2013-10-09 15:18:00,60.5,40.7,30.31,East,81,0.2,5.8,48,0.00,OVC,,0.00,190.0,WeatherDisplay:10.37,2013-10-09 19:18:00,
2013-10-09 15:23:00,60.7,41.4,30.31,NNE,30,0.5,8.1,49,0.00,OVC,,0.00,185.0,WeatherDisplay:10.37,2013-10-09 19:23:00,
2013-10-09 15:28:00,60.7,41.9,30.31,North,5,2.0,6.0,50,0.00,OVC,,0.00,178.0,WeatherDisplay:10.37,2013-10-09 19:28:00,
2013-10-09 15:33:00,60.5,40.7,30.31,East,82,1.7,5.8,48,0.00,OVC,,0.00,165.0,WeatherDisplay:10.37,2013-10-09 19:33:00,
2013-10-09 15:38:00,60.5,41.8,30.30,NNE,14,2.9,8.1,50,0.00,OVC,,0.00,153.0,WeatherDisplay:10.37,2013-10-09 19:38:00,
2013-10-09 15:43:00,60.5,42.3,30.30,NNE,18,1.8,4.6,51,0.00,OVC,,0.00,146.0,WeatherDisplay:10.37,2013-10-09 19:43:00,
2013-10-09 15:48:00,60.5,42.3,30.30,NNE,14,1.9,4.6,51,0.00,OVC,,0.00,141.0,WeatherDisplay:10.37,2013-10-09 19:48:00,
2013-10-09 15:53:00,60.4,42.7,30.30,NE,46,0.6,3.5,52,0.00,OVC,,0.00,132.0,WeatherDisplay:10.37,2013-10-09 19:53:00,
2013-10-09 15:58:00,60.4,42.7,30.30,NE,48,0.1,1.5,52,0.00,OVC,,0.00,123.0,WeatherDisplay:10.37,2013-10-09 19:58:00,
2013-10-09 16:03:00,60.2,43.0,30.30,NE,46,0.3,1.5,53,0.00,OVC,,0.00,114.0,WeatherDisplay:10.37,2013-10-09 20:03:00,
2013-10-09 16:08:00,60.1,42.9,30.30,East,93,2.6,4.6,53,0.00,OVC,,0.00,105.0,WeatherDisplay:10.37,2013-10-09 20:08:00,
2013-10-09 16:13:00,59.9,43.2,30.30,North,5,0.8,3.0,54,0.00,OVC,,0.00,98.0,WeatherDisplay:10.37,2013-10-09 20:13:00,
2013-10-09 16:18:00,59.8,43.1,30.30,ENE,76,0.0,3.5,54,0.00,OVC,,0.00,97.0,WeatherDisplay:10.37,2013-10-09 20:18:00,
2013-10-09 16:23:00,59.6,42.9,30.30,ENE,71,0.3,1.5,54,0.00,OVC,,0.00,95.0,WeatherDisplay:10.37,2013-10-09 20:23:00,
2013-10-09 16:28:00,59.6,42.9,30.30,East,90,5.5,13.8,54,0.00,OVC,,0.00,91.0,WeatherDisplay:10.37,2013-10-09 20:28:00,
2013-10-09 16:33:00,59.5,42.8,30.30,East,88,0.1,1.5,54,0.00,OVC,,0.00,88.0,WeatherDisplay:10.37,2013-10-09 20:33:00,
2013-10-09 16:38:00,59.5,43.3,30.30,East,82,0.2,1.2,55,0.00,OVC,,0.00,86.0,WeatherDisplay:10.37,2013-10-09 20:38:00,
2013-10-09 16:43:00,59.5,43.3,30.30,East,84,0.0,1.5,55,0.00,OVC,,0.00,84.0,WeatherDisplay:10.37,2013-10-09 20:43:00,
2013-10-09 16:49:00,59.5,43.8,30.30,East,82,0.1,1.5,56,0.00,OVC,,0.00,83.0,WeatherDisplay:10.37,2013-10-09 20:49:00,
2013-10-09 16:54:00,59.3,43.1,30.30,East,82,0.0,0.0,55,0.00,OVC,,0.00,79.0,WeatherDisplay:10.37,2013-10-09 20:54:00,
2013-10-09 16:59:00,59.3,43.1,30.30,East,95,0.2,4.6,55,0.00,OVC,,0.00,77.0,WeatherDisplay:10.37,2013-10-09 20:59:00,
2013-10-09 17:04:00,59.3,43.1,30.30,NNE,32,1.4,5.8,55,0.00,-RA,,0.00,74.0,WeatherDisplay:10.37,2013-10-09 21:04:00,
2013-10-09 17:09:00,59.2,43.5,30.29,NNE,31,2.0,4.6,56,0.00,-RA,,0.00,70.0,WeatherDisplay:10.37,2013-10-09 21:09:00,
2013-10-09 17:14:00,59.2,43.5,30.29,NNE,25,0.1,1.2,56,0.00,-RA,,0.00,67.0,WeatherDisplay:10.37,2013-10-09 21:14:00,
2013-10-09 17:19:00,59.0,43.3,30.29,NNE,16,1.2,3.5,56,0.00,-RA,,0.00,63.0,WeatherDisplay:10.37,2013-10-09 21:19:00,
2013-10-09 17:24:00,59.0,43.3,30.28,NNE,33,2.9,5.8,56,0.00,-RA,,0.00,60.0,WeatherDisplay:10.37,2013-10-09 21:24:00,
2013-10-09 17:29:00,58.9,43.7,30.28,NNE,30,1.3,3.0,57,0.00,-RA,,0.00,56.0,WeatherDisplay:10.37,2013-10-09 21:29:00,
2013-10-09 17:34:00,58.7,43.5,30.28,NE,38,2.0,3.5,57,0.00,-RA,,0.00,51.0,WeatherDisplay:10.37,2013-10-09 21:34:00,
2013-10-09 17:39:00,58.7,43.5,30.28,North,355,1.4,4.6,57,0.00,-RA,,0.00,44.0,WeatherDisplay:10.37,2013-10-09 21:39:00,
2013-10-09 17:44:00,58.6,43.4,30.28,North,11,0.7,3.5,57,0.00,-RA,,0.00,39.0,WeatherDisplay:10.37,2013-10-09 21:44:00,
2013-10-09 17:49:00,58.4,43.2,30.28,North,11,0.0,0.0,57,0.00,-RA,,0.00,33.0,WeatherDisplay:10.37,2013-10-09 21:49:00,
2013-10-09 17:54:00,58.3,43.1,30.28,North,11,0.2,1.5,57,0.00,-RA,,0.00,26.0,WeatherDisplay:10.37,2013-10-09 21:54:00,
2013-10-09 17:59:00,58.3,43.1,30.28,North,11,0.0,0.0,57,0.00,-RA,,0.00,23.0,WeatherDisplay:10.37,2013-10-09 21:59:00,
2013-10-09 18:04:00,58.1,43.4,30.28,North,11,0.0,1.2,58,0.00,-RA,,0.00,18.0,WeatherDisplay:10.37,2013-10-09 22:04:00,
2013-10-09 18:09:00,58.0,43.3,30.28,North,11,0.0,0.0,58,0.00,-RA,,0.00,14.0,WeatherDisplay:10.37,2013-10-09 22:09:00,
2013-10-09 18:14:00,57.8,43.6,30.28,North,11,0.0,0.0,59,0.00,-RA,,0.00,12.0,WeatherDisplay:10.37,2013-10-09 22:14:00,
2013-10-09 18:19:00,57.6,43.4,30.28,North,11,1.4,3.0,59,0.00,-RA,,0.00,11.0,WeatherDisplay:10.37,2013-10-09 22:19:00,
2013-10-09 18:24:00,57.5,43.3,30.28,North,11,0.0,0.0,59,0.00,-RA,,0.00,7.0,WeatherDisplay:10.37,2013-10-09 22:24:00,
2013-10-09 18:29:00,57.5,43.7,30.28,North,11,0.9,3.5,60,0.00,-RA,,0.00,0.0,WeatherDisplay:10.37,2013-10-09 22:29:00,
2013-10-09 18:34:00,57.3,43.5,30.29,North,11,0.0,0.0,60,0.00,-RA,,0.00,0.0,WeatherDisplay:10.37,2013-10-09 22:34:00,
2013-10-09 18:39:00,57.2,43.4,30.28,North,11,0.0,0.0,60,0.00,-RA,,0.00,0.0,WeatherDisplay:10.37,2013-10-09 22:39:00,
2013-10-09 18:44:00,57.0,43.7,30.29,North,11,0.1,1.2,61,0.00,-RA,,0.00,0.0,WeatherDisplay:10.37,2013-10-09 22:44:00,
2013-10-09 18:49:00,56.9,43.6,30.28,North,11,0.0,0.0,61,0.00,-RA,,0.00,0.0,WeatherDisplay:10.37,2013-10-09 22:49:00,
2013-10-09 18:54:00,56.9,44.0,30.28,North,11,0.0,0.0,62,0.00,-RA,,0.00,0.0,WeatherDisplay:10.37,2013-10-09 22:54:00,
2013-10-09 18:59:00,56.7,43.8,30.29,North,11,0.1,1.2,62,0.00,-RA,,0.00,0.0,WeatherDisplay:10.37,2013-10-09 22:59:00,
2013-10-09 19:04:00,56.7,43.8,30.28,North,11,0.1,1.5,62,0.00,-RA,,0.00,0.0,WeatherDisplay:10.37,2013-10-09 23:04:00,
2013-10-09 19:09:00,56.6,44.1,30.28,North,11,0.0,0.0,63,0.00,-RA,,0.00,0.0,WeatherDisplay:10.37,2013-10-09 23:09:00,
2013-10-09 19:14:00,56.6,44.1,30.28,North,11,0.0,0.0,63,0.00,-RA,,0.00,0.0,WeatherDisplay:10.37,2013-10-09 23:14:00,
2013-10-09 19:19:00,56.5,44.0,30.28,North,11,0.0,0.0,63,0.00,-RA,,0.00,0.0,WeatherDisplay:10.37,2013-10-09 23:19:00,
2013-10-09 19:24:00,56.5,44.0,30.28,North,11,0.0,0.0,63,0.00,-RA,,0.00,0.0,WeatherDisplay:10.37,2013-10-09 23:24:00,
2013-10-09 19:29:00,56.5,44.5,30.28,North,11,0.0,0.0,64,0.00,-RA,,0.00,0.0,WeatherDisplay:10.37,2013-10-09 23:29:00,
2013-10-09 19:34:00,56.3,44.7,30.28,North,11,0.0,0.0,65,0.00,-RA,,0.00,0.0,WeatherDisplay:10.37,2013-10-09 23:34:00,
2013-10-09 19:39:00,56.2,44.6,30.29,North,11,0.0,0.0,65,0.00,-RA,,0.00,0.0,WeatherDisplay:10.37,2013-10-09 23:39:00,
2013-10-09 19:44:00,56.2,44.2,30.29,North,11,0.1,1.5,64,0.00,-RA,,0.00,0.0,WeatherDisplay:10.37,2013-10-09 23:44:00,
2013-10-09 19:49:00,56.3,44.3,30.29,North,11,0.0,0.0,64,0.00,-RA,,0.00,0.0,WeatherDisplay:10.37,2013-10-09 23:49:00,
2013-10-09 19:54:00,56.3,44.7,30.29,North,11,0.0,0.0,65,0.00,-RA,,0.00,0.0,WeatherDisplay:10.37,2013-10-09 23:54:00,
2013-10-09 19:59:00,56.2,44.2,30.29,North,11,0.0,0.0,64,0.00,-RA,,0.00,0.0,WeatherDisplay:10.37,2013-10-09 23:59:00,
2013-10-09 20:04:00,56.2,44.6,30.29,North,11,0.0,0.0,65,0.00,-RA,,0.00,0.0,WeatherDisplay:10.37,2013-10-10 00:04:00,
2013-10-09 20:09:00,56.2,45.0,30.29,North,11,0.0,0.0,66,0.00,-RA,,0.00,0.0,WeatherDisplay:10.37,2013-10-10 00:09:00,
2013-10-09 20:14:00,56.0,44.8,30.29,North,11,0.0,0.0,66,0.00,-RA,,0.00,0.0,WeatherDisplay:10.37,2013-10-10 00:14:00,
2013-10-09 20:19:00,55.9,44.7,30.29,North,11,0.0,0.0,66,0.00,-RA,,0.00,0.0,WeatherDisplay:10.37,2013-10-10 00:19:00,
2013-10-09 20:24:00,55.9,44.7,30.28,North,11,0.0,0.0,66,0.00,-RA,,0.00,0.0,WeatherDisplay:10.37,2013-10-10 00:24:00,
2013-10-09 20:29:00,55.7,44.5,30.29,North,11,0.0,0.0,66,0.00,-RA,,0.00,0.0,WeatherDisplay:10.37,2013-10-10 00:29:00,
2013-10-09 20:34:00,55.7,44.5,30.29,North,11,0.0,0.0,66,0.00,-RA,,0.00,0.0,WeatherDisplay:10.37,2013-10-10 00:34:00,
2013-10-09 20:39:00,55.9,44.7,30.29,North,11,0.0,0.0,66,0.00,-RA,,0.00,0.0,WeatherDisplay:10.37,2013-10-10 00:39:00,
2013-10-09 20:44:00,55.7,44.5,30.28,North,11,0.0,0.0,66,0.00,-RA,,0.00,0.0,WeatherDisplay:10.37,2013-10-10 00:44:00,
2013-10-09 20:49:00,55.7,44.5,30.28,North,11,0.0,0.0,66,0.00,-RA,,0.00,0.0,WeatherDisplay:10.37,2013-10-10 00:49:00,
2013-10-09 20:54:00,55.7,44.5,30.28,North,11,0.0,0.0,66,0.00,-RA,,0.00,0.0,WeatherDisplay:10.37,2013-10-10 00:54:00,
2013-10-09 20:59:00,55.7,44.5,30.28,North,11,0.1,1.5,66,0.00,-RA,,0.00,0.0,WeatherDisplay:10.37,2013-10-10 00:59:00,
2013-10-09 21:04:00,55.6,44.4,30.28,North,11,0.1,1.2,66,0.00,-RA,,0.00,0.0,WeatherDisplay:10.37,2013-10-10 01:04:00,
2013-10-09 21:09:00,55.6,44.4,30.28,North,11,0.0,0.0,66,0.00,-RA,,0.00,0.0,WeatherDisplay:10.37,2013-10-10 01:09:00,
2013-10-09 21:14:00,55.6,44.4,30.28,North,11,0.0,0.0,66,0.00,-RA,,0.00,0.0,WeatherDisplay:10.37,2013-10-10 01:14:00,
2013-10-09 21:19:00,55.6,44.8,30.28,North,11,0.0,0.0,67,0.00,-RA,,0.00,0.0,WeatherDisplay:10.37,2013-10-10 01:19:00,
2013-10-09 21:24:00,55.4,45.0,30.28,North,11,0.0,0.0,68,0.00,-RA,,0.00,0.0,WeatherDisplay:10.37,2013-10-10 01:24:00,
2013-10-09 21:29:00,55.3,45.3,30.28,North,11,0.0,0.0,69,0.00,-RA,,0.00,0.0,WeatherDisplay:10.37,2013-10-10 01:29:00,
2013-10-09 21:34:00,55.1,45.1,30.28,North,11,0.0,0.0,69,0.00,-RA,,0.00,0.0,WeatherDisplay:10.37,2013-10-10 01:34:00,
2013-10-09 21:39:00,55.0,45.4,30.28,North,11,0.0,0.0,70,0.00,-RA,,0.00,0.0,WeatherDisplay:10.37,2013-10-10 01:39:00,
2013-10-09 21:44:00,55.0,45.8,30.28,North,11,0.0,0.0,71,0.00,-RA,,0.00,0.0,WeatherDisplay:10.37,2013-10-10 01:44:00,
2013-10-09 21:49:00,54.7,45.8,30.28,North,11,0.0,0.0,72,0.00,-RA,,0.00,0.0,WeatherDisplay:10.37,2013-10-10 01:49:00,
2013-10-09 21:54:00,54.5,46.0,30.28,North,11,0.0,0.0,73,0.00,-RA,,0.00,0.0,WeatherDisplay:10.37,2013-10-10 01:54:00,
2013-10-09 21:59:00,54.5,46.0,30.28,North,11,0.0,0.0,73,0.00,-RA,,0.00,0.0,WeatherDisplay:10.37,2013-10-10 01:59:00,
2013-10-09 22:04:00,54.4,46.3,30.28,North,11,0.0,0.0,74,0.00,-RA,,0.00,0.0,WeatherDisplay:10.37,2013-10-10 02:04:00,
2013-10-09 22:09:00,54.2,46.4,30.28,North,11,0.0,0.0,75,0.00,-RA,,0.00,0.0,WeatherDisplay:10.37,2013-10-10 02:09:00,
2013-10-09 22:14:00,53.9,46.2,30.28,North,11,0.0,0.0,75,0.00,-RA,,0.00,0.0,WeatherDisplay:10.37,2013-10-10 02:14:00,
2013-10-09 22:19:00,53.8,46.4,30.28,North,11,0.0,0.0,76,0.00,-RA,,0.00,0.0,WeatherDisplay:10.37,2013-10-10 02:19:00,
2013-10-09 22:24:00,53.6,46.6,30.28,North,11,0.0,0.0,77,0.00,-RA,,0.00,0.0,WeatherDisplay:10.37,2013-10-10 02:24:00,
2013-10-09 22:29:00,53.5,46.8,30.28,North,11,0.0,0.0,78,0.01,-RA,,0.01,0.0,WeatherDisplay:10.37,2013-10-10 02:29:00,
2013-10-09 22:34:00,53.3,46.6,30.28,North,11,0.0,0.0,78,0.01,-RA,,0.01,0.0,WeatherDisplay:10.37,2013-10-10 02:34:00,
2013-10-09 22:39:00,53.3,46.6,30.28,North,11,0.0,0.0,78,0.01,-RA,,0.01,0.0,WeatherDisplay:10.37,2013-10-10 02:39:00,
2013-10-09 22:44:00,53.2,46.5,30.28,North,11,0.0,0.0,78,0.01,-RA,,0.01,0.0,WeatherDisplay:10.37,2013-10-10 02:44:00,
2013-10-09 22:49:00,53.2,46.9,30.28,North,11,0.0,0.0,79,0.01,-RA,,0.01,0.0,WeatherDisplay:10.37,2013-10-10 02:49:00,
2013-10-09 22:54:00,53.2,46.9,30.28,North,11,0.0,0.0,79,0.02,-RA,,0.02,0.0,WeatherDisplay:10.37,2013-10-10 02:54:00,
2013-10-09 22:59:00,53.2,46.9,30.28,North,11,0.0,0.0,79,0.02,-RA,,0.02,0.0,WeatherDisplay:10.37,2013-10-10 02:59:00,
2013-10-09 23:04:00,53.1,46.8,30.28,North,11,0.0,0.0,79,0.03,-RA,,0.03,0.0,WeatherDisplay:10.37,2013-10-10 03:04:00,
2013-10-09 23:09:00,53.1,47.1,30.28,North,11,0.0,0.0,80,0.03,-RA,,0.03,0.0,WeatherDisplay:10.37,2013-10-10 03:09:00,
2013-10-09 23:14:00,52.9,46.9,30.28,North,11,0.0,0.0,80,0.03,-RA,,0.04,0.0,WeatherDisplay:10.37,2013-10-10 03:14:00,
2013-10-09 23:19:00,52.8,47.1,30.27,North,11,0.0,0.0,81,0.04,-RA,,0.04,0.0,WeatherDisplay:10.37,2013-10-10 03:19:00,
2013-10-09 23:24:00,52.8,47.1,30.27,North,11,0.0,0.0,81,0.04,-RA,,0.04,0.0,WeatherDisplay:10.37,2013-10-10 03:24:00,
2013-10-09 23:29:00,52.6,46.9,30.27,North,11,0.0,0.0,81,0.03,-RA,,0.04,0.0,WeatherDisplay:10.37,2013-10-10 03:29:00,
2013-10-09 23:34:00,52.5,47.2,30.27,North,11,0.0,0.0,82,0.04,-RA,,0.05,0.0,WeatherDisplay:10.37,2013-10-10 03:34:00,
2013-10-09 23:39:00,52.3,47.0,30.27,North,11,0.0,0.0,82,0.04,-RA,,0.05,0.0,WeatherDisplay:10.37,2013-10-10 03:39:00,
2013-10-09 23:44:00,52.3,47.0,30.27,North,11,0.0,0.0,82,0.04,-RA,,0.05,0.0,WeatherDisplay:10.37,2013-10-10 03:44:00,
2013-10-09 23:49:00,52.2,47.2,30.26,North,11,0.3,1.2,83,0.05,-RA,,0.06,0.0,WeatherDisplay:10.37,2013-10-10 03:49:00,
2013-10-09 23:54:00,52.0,47.0,30.26,North,11,0.0,0.0,83,0.04,-RA,,0.06,0.0,WeatherDisplay:10.37,2013-10-10 03:54:00,
2013-10-09 23:59:00,52.0,47.0,30.26,North,11,0.0,0.0,83,0.04,-RA,,0.06,0.0,WeatherDisplay:10.37,2013-10-10 03:59:00,